Provincetown II — WYQ8368 — position and weather

sailwx.info

Track history (hours):
 
Tides and Currents Weather Stations Pressure Air Temp Water Temp Dewpoint Dewpoint Depression Visibility Wind Speed Wind Dir Waves Ship Positions

Provincetown II

Owner: BAY STATE MARINE CORP, BOSTON, MA. More information available from US FCC via Universal Licensing System and Coast Guard Vessel Documentation Center.

Last reported at 2017-Oct-22 01:44 UTC. Time now 2017-Nov-19 03:04 UTC.
Position N 42°21' W 071°02'.
Warning: this ship's position is 28 days out of date.

Length 64 m; draft 2 m.

Type: Passenger vessel. MMSI: 376325010.

Date/timePositionNaut miles runAvg speedWind from/ knotsBaromVisibWave heightAir tempDewpointWater temp
2017-Oct-22 01:44N 42°21' W 071°02'2 7.5
2017-Oct-22 01:30N 42°20' W 071°00'2 4.3
2017-Oct-22 01:00N 42°20' W 070°57'2 3.6
2017-Oct-22 00:30N 42°19' W 070°56'2 3.9
2017-Oct-22 00:00N 42°20' W 070°58'3 5.6
2017-Oct-21 23:30N 42°21' W 071°01'0 0.0
2017-Oct-21 01:40N 42°21' W 071°01'1 5.4
2017-Oct-21 01:30N 42°20' W 071°00'0 0.1
2017-Oct-21 01:00N 42°20' W 071°00'1 1.4
2017-Oct-21 00:30N 42°20' W 070°60'  
2017-Oct-15 01:44N 42°21' W 071°02'1 4.1
2017-Oct-15 01:30N 42°21' W 071°01'2 3.5
2017-Oct-15 01:00N 42°20' W 070°59'2 3.3
2017-Oct-15 00:30N 42°18' W 070°58'2 4.0
2017-Oct-15 00:00N 42°19' W 070°56'3 5.2
2017-Oct-14 23:30N 42°20' W 070°59'3 4.8
2017-Oct-14 22:59N 42°21' W 071°02'  
Track history (hours):
 
Tides and Currents Weather Stations Pressure Air Temp Water Temp Dewpoint Dewpoint Depression Visibility Wind Speed Wind Dir Waves Ship Positions

Provincetown II

Owner: BAY STATE MARINE CORP, BOSTON, MA. More information available from US FCC via Universal Licensing System and Coast Guard Vessel Documentation Center.

Last reported at 2017-Oct-22 01:44 UTC. Time now 2017-Nov-19 03:04 UTC.
Position N 42°21' W 071°02'.
Warning: this ship's position is 28 days out of date.

Length 64 m; draft 2 m.

Type: Passenger vessel. MMSI: 376325010.

Date/timePositionNaut miles runAvg speedWind from/ knotsBaromVisibWave heightAir tempDewpointWater temp
2017-Oct-22 01:44N 42°21' W 071°02'2 7.5
2017-Oct-22 01:30N 42°20' W 071°00'2 4.3
2017-Oct-22 01:00N 42°20' W 070°57'2 3.6
2017-Oct-22 00:30N 42°19' W 070°56'2 3.9
2017-Oct-22 00:00N 42°20' W 070°58'3 5.6
2017-Oct-21 23:30N 42°21' W 071°01'0 0.0
2017-Oct-21 01:40N 42°21' W 071°01'1 5.4
2017-Oct-21 01:30N 42°20' W 071°00'0 0.1
2017-Oct-21 01:00N 42°20' W 071°00'1 1.4
2017-Oct-21 00:30N 42°20' W 070°60'  
2017-Oct-15 01:44N 42°21' W 071°02'1 4.1
2017-Oct-15 01:30N 42°21' W 071°01'2 3.5
2017-Oct-15 01:00N 42°20' W 070°59'2 3.3
2017-Oct-15 00:30N 42°18' W 070°58'2 4.0
2017-Oct-15 00:00N 42°19' W 070°56'3 5.2
2017-Oct-14 23:30N 42°20' W 070°59'3 4.8
2017-Oct-14 22:59N 42°21' W 071°02'  

Dump ship's entire track history